Aeroporto :
LOGIN :

Iscrizione | Disclaimer

   EN    FR    IT 

 










Sommario :    VFR   VFR Marginale   IFR   IFR Intensivo   IFR Molto Intensivo
Visibilità : 
Base nubi : 
>= 8 km
>= 3000ft
5 / 8 km
1000 / 3000 ft
1500m / 5 km
500 / 1000 ft
800 / 1500m
200 / 500 ft
< 800m
< 200 ft
Simboli :   Temporali  Nebbia  Neve Forte  Precipitazioni Forti  Vento > 20 kt
SIGMETs :   Varie  Temporali  Ghiacco  Turbolenza  Onda orograficha  Ceneri Vulcaniche






- Altitudine del aeroporto : 17 ft
- Codice IATA : MPL


LFMT - Montpellier Méditerranée

ULTIMO METAR :
  • 091100Z AUTO 20007KT 160V220 CAVOK 29/21 Q1016 NOSIG

METARs OBSOLETI :
  • 091030Z AUTO 19007KT CAVOK 29/22 Q1016 NOSIG
  • 091000Z AUTO 19007KT 160V230 CAVOK 28/22 Q1016 NOSIG
  • 090930Z AUTO 16004KT 130V190 CAVOK 28/21 Q1016 NOSIG
  • 090900Z AUTO 12006KT 090V170 CAVOK 27/22 Q1017 NOSIG
  • 090830Z AUTO 15005KT CAVOK 26/22 Q1017 NOSIG

TAF TAF LFMT
Valido dal 09 a 09 ore il 10 a 09 ore UTC


090800Z 0909/1009 18010KT CAVOK
TEMPO 0919/1009 VRB04KT 3000 BR BKN005
ATIS : +33 4 67 13 11 70



MetMap, La meteo Aeronautica in un colpo d'occhio ! - Copyright ORBIFLY Dicembre 2007 - Disclaimer

ORBIFLY MET'MAP TEAM :

Programmazione e sviluppo : Alexandra Zaïnal
Concezione : Baudouin d'Aumeries
Aiuto per la programmazione : Marc-Olivier Méhu
Supporto tecnico e logistico : Manuel Goepfert
Aiuto per la traduzione : Arnaldo La Scala

Contatto : metmap@orbifly.com




FONTI E CREDITI :

   NOAA